Terminal Aerodrome Forecast
Issued by NWS Blacksburg, VA

Current Version | Previous Version | Graphics & Text | Print | Product List | Glossary On
Versions: 1 2 3 4 5 6 7 8 9 10 11 12 13 14 15 16 17 18 19 20
000
FTUS41 KRNK 221518 AAB
TAFBLF
TAF AMD
KBLF 221518Z 2215/2312 31006KT 5SM BR OVC003
     FM221800 32012G18KT P6SM -SHRA BKN015
     FM230300 30006KT P6SM OVC008=

USA.gov is the U.S. government's official web portal to all federal, state and local government web resources and services.